createdAt,value
2023-10-07T00:00:51.016Z,15.45
2023-10-07T00:03:20.760Z,15.39
2023-10-07T00:05:51.422Z,15.41
2023-10-07T00:08:21.037Z,15.43
2023-10-07T00:10:51.196Z,15.43
2023-10-07T00:13:22.030Z,15.42
2023-10-07T00:15:52.168Z,15.42
2023-10-07T00:18:20.251Z,15.41
2023-10-07T00:20:54.603Z,15.40
2023-10-07T00:23:23.561Z,15.39
2023-10-07T00:25:59.503Z,15.37
2023-10-07T00:28:34.212Z,15.38
2023-10-07T00:31:05.613Z,15.38
2023-10-07T00:33:52.659Z,15.41
2023-10-07T00:36:40.419Z,15.41
2023-10-07T00:39:09.059Z,15.40
2023-10-07T00:41:40.798Z,15.39
2023-10-07T00:44:18.359Z,15.42
2023-10-07T00:47:04.410Z,15.41
2023-10-07T00:49:43.609Z,15.44
2023-10-07T00:52:25.831Z,15.46
2023-10-07T00:54:59.675Z,15.43
2023-10-07T00:57:36.875Z,15.43
2023-10-07T01:00:23.255Z,15.42
2023-10-07T01:02:53.496Z,15.39
2023-10-07T01:05:27.476Z,15.45
2023-10-07T01:07:55.069Z,15.43
2023-10-07T01:10:33.113Z,15.44
2023-10-07T01:13:04.672Z,15.41
2023-10-07T01:15:33.203Z,15.43
2023-10-07T01:18:13.536Z,15.45
2023-10-07T01:20:52.628Z,15.45
2023-10-07T01:23:24.749Z,15.42
2023-10-07T01:25:52.348Z,15.43
2023-10-07T01:28:22.157Z,15.42
2023-10-07T01:31:10.900Z,15.42
2023-10-07T01:33:47.626Z,15.43
2023-10-07T01:36:21.958Z,15.42
2023-10-07T01:38:56.210Z,15.44
2023-10-07T01:41:28.925Z,15.44
2023-10-07T01:44:06.247Z,15.40
2023-10-07T01:46:35.909Z,15.42
2023-10-07T01:49:13.682Z,15.42
2023-10-07T01:51:47.359Z,15.41
2023-10-07T01:54:14.424Z,15.41
2023-10-07T01:56:41.427Z,15.44
2023-10-07T01:59:16.623Z,15.44
2023-10-07T02:01:51.783Z,15.44
2023-10-07T02:04:19.962Z,15.46
2023-10-07T02:06:53.470Z,15.49
2023-10-07T02:09:28.723Z,15.53
2023-10-07T02:12:13.158Z,15.55
2023-10-07T02:14:40.329Z,15.53
2023-10-07T02:17:09.801Z,15.54
2023-10-07T02:19:41.150Z,15.57
2023-10-07T02:22:09.444Z,15.58
2023-10-07T02:24:42.298Z,15.59
2023-10-07T02:27:19.903Z,15.68
2023-10-07T02:29:58.968Z,15.70
2023-10-07T02:32:26.217Z,15.70
2023-10-07T02:34:53.679Z,15.73
2023-10-07T02:37:30.866Z,15.75
2023-10-07T02:40:18.271Z,15.75
2023-10-07T02:42:48.108Z,15.79
2023-10-07T02:45:29.700Z,15.79
2023-10-07T02:48:02.263Z,15.79
2023-10-07T02:50:32.532Z,15.81
2023-10-07T02:53:04.341Z,15.81
2023-10-07T02:55:39.898Z,15.84
2023-10-07T02:58:08.185Z,15.84
2023-10-07T03:00:38.719Z,15.86
2023-10-07T03:03:25.749Z,15.89
2023-10-07T03:05:59.802Z,15.89
2023-10-07T03:08:42.300Z,15.90
2023-10-07T03:11:13.395Z,15.89
2023-10-07T03:13:50.481Z,15.91
2023-10-07T03:16:24.632Z,15.90
2023-10-07T03:19:02.087Z,15.94
2023-10-07T03:21:41.987Z,15.93
2023-10-07T03:24:14.330Z,15.93
2023-10-07T03:26:44.547Z,15.97
2023-10-07T03:29:22.739Z,15.92
2023-10-07T03:31:49.974Z,15.94
2023-10-07T03:34:17.083Z,15.96
2023-10-07T03:37:07.420Z,15.97
2023-10-07T03:39:57.827Z,15.97
2023-10-07T03:42:25.456Z,15.94
2023-10-07T03:44:52.525Z,15.98
2023-10-07T03:47:19.527Z,15.97
2023-10-07T03:49:54.519Z,15.96
2023-10-07T03:52:22.284Z,16.00
2023-10-07T03:54:49.726Z,15.99
2023-10-07T03:57:16.977Z,15.99
2023-10-07T03:59:46.846Z,16.03
2023-10-07T04:02:29.433Z,16.02
2023-10-07T04:05:01.556Z,16.01
2023-10-07T04:07:30.950Z,16.04
2023-10-07T04:10:27.054Z,16.04
2023-10-07T04:12:57.841Z,16.07
2023-10-07T04:15:31.659Z,16.05
2023-10-07T04:18:00.896Z,16.06
2023-10-07T04:20:52.233Z,16.03
2023-10-07T04:23:22.670Z,16.05
2023-10-07T04:25:49.800Z,16.05
2023-10-07T04:28:16.718Z,16.04
2023-10-07T04:30:48.829Z,16.03
2023-10-07T04:33:19.260Z,16.03
2023-10-07T04:35:51.867Z,16.02
2023-10-07T04:38:40.958Z,16.00
2023-10-07T04:41:23.377Z,16.02
2023-10-07T04:44:00.281Z,16.02
2023-10-07T04:46:30.825Z,16.02
2023-10-07T04:49:14.017Z,16.02
2023-10-07T04:51:44.024Z,16.03
2023-10-07T04:54:24.058Z,16.01
2023-10-07T04:57:01.876Z,16.00
2023-10-07T04:59:31.977Z,16.01
2023-10-07T05:02:02.971Z,15.99
2023-10-07T05:04:30.218Z,15.98
2023-10-07T05:06:57.250Z,16.00
2023-10-07T05:09:27.379Z,15.99
2023-10-07T05:11:54.678Z,16.01
2023-10-07T05:14:26.009Z,15.99
2023-10-07T05:16:53.729Z,16.02
2023-10-07T05:19:21.387Z,16.01
2023-10-07T05:22:01.684Z,16.02
2023-10-07T05:24:34.008Z,16.00
2023-10-07T05:27:01.742Z,16.01
2023-10-07T05:29:31.891Z,16.02
2023-10-07T05:31:59.509Z,16.01
2023-10-07T05:34:29.881Z,16.00
2023-10-07T05:37:04.334Z,16.01
2023-10-07T05:39:33.754Z,16.01
2023-10-07T05:42:04.638Z,16.02
2023-10-07T05:44:32.160Z,16.03
2023-10-07T05:47:04.376Z,16.01
2023-10-07T05:49:32.513Z,16.02
2023-10-07T05:52:00.073Z,16.00
2023-10-07T05:54:29.753Z,16.01
2023-10-07T05:56:57.211Z,16.00
2023-10-07T05:59:24.345Z,16.00
2023-10-07T06:01:51.651Z,16.02
2023-10-07T06:04:20.564Z,16.02
2023-10-07T06:06:48.019Z,16.05
2023-10-07T06:09:18.078Z,16.04
2023-10-07T06:11:45.946Z,16.07
2023-10-07T06:14:13.486Z,16.07
2023-10-07T06:16:41.348Z,16.06
2023-10-07T06:19:09.250Z,16.08
2023-10-07T06:21:36.363Z,16.08
2023-10-07T06:24:08.569Z,16.06
2023-10-07T06:26:37.739Z,16.06
2023-10-07T06:29:08.927Z,16.06
2023-10-07T06:31:37.547Z,16.07
2023-10-07T06:34:12.903Z,16.07
2023-10-07T06:36:41.699Z,16.08
2023-10-07T06:39:09.188Z,16.07
2023-10-07T06:41:36.956Z,16.07
2023-10-07T06:44:05.256Z,16.08
2023-10-07T06:46:43.488Z,16.10
2023-10-07T06:49:19.576Z,16.13
2023-10-07T06:51:54.874Z,16.12
2023-10-07T06:54:24.540Z,16.11
2023-10-07T06:56:52.559Z,16.14
2023-10-07T06:59:19.983Z,16.14
2023-10-07T07:01:47.049Z,16.16
2023-10-07T07:04:20.268Z,16.16
2023-10-07T07:06:58.724Z,16.18
2023-10-07T07:09:45.898Z,16.16
2023-10-07T07:12:18.012Z,16.18
2023-10-07T07:14:52.951Z,16.19
2023-10-07T07:17:32.413Z,16.18
2023-10-07T07:20:12.574Z,16.20
2023-10-07T07:22:48.372Z,16.23
2023-10-07T07:25:23.712Z,16.27
2023-10-07T07:27:51.629Z,16.33
2023-10-07T07:30:32.859Z,16.34
2023-10-07T07:33:08.896Z,16.37
2023-10-07T07:35:44.879Z,16.41
2023-10-07T07:38:21.842Z,16.45
2023-10-07T07:40:50.935Z,16.53
2023-10-07T07:43:20.893Z,16.54
2023-10-07T07:45:48.402Z,16.59
2023-10-07T07:48:17.815Z,16.64
2023-10-07T07:50:44.983Z,16.70
2023-10-07T07:53:14.190Z,16.72
2023-10-07T07:55:47.656Z,16.83
2023-10-07T07:58:14.901Z,16.86
2023-10-07T08:00:45.611Z,16.91
2023-10-07T08:03:13.740Z,16.95
2023-10-07T08:05:42.862Z,17.01
2023-10-07T08:08:21.051Z,17.09
2023-10-07T08:10:48.095Z,17.15
2023-10-07T08:13:18.674Z,17.19
2023-10-07T08:15:48.810Z,17.32
2023-10-07T08:18:16.654Z,17.35
2023-10-07T08:20:47.005Z,17.43
2023-10-07T08:23:24.060Z,17.46
2023-10-07T08:25:57.165Z,17.57
2023-10-07T08:28:26.301Z,17.61
2023-10-07T08:30:54.500Z,17.75
2023-10-07T08:33:24.325Z,17.75
2023-10-07T08:35:54.225Z,17.85
2023-10-07T08:38:23.494Z,17.93
2023-10-07T08:41:08.960Z,17.96
2023-10-07T08:44:01.072Z,18.07
2023-10-07T08:46:29.440Z,18.15
2023-10-07T08:49:05.631Z,18.24
2023-10-07T08:51:41.192Z,18.30
2023-10-07T08:54:18.842Z,18.31
2023-10-07T08:56:55.928Z,18.44
2023-10-07T08:59:24.062Z,18.52
2023-10-07T09:01:58.682Z,18.63
2023-10-07T09:04:30.715Z,18.74
2023-10-07T09:06:57.700Z,18.80
2023-10-07T09:09:45.522Z,18.88
2023-10-07T09:12:16.730Z,19.00
2023-10-07T09:14:54.030Z,18.97
2023-10-07T09:17:30.708Z,19.02
2023-10-07T09:20:02.815Z,19.15
2023-10-07T09:22:36.709Z,19.21
2023-10-07T09:25:18.467Z,19.32
2023-10-07T09:27:56.103Z,19.40
2023-10-07T09:30:34.323Z,19.40
2023-10-07T09:33:01.322Z,19.54
2023-10-07T09:35:30.045Z,19.62
2023-10-07T09:38:01.178Z,19.62
2023-10-07T09:41:04.495Z,19.64
2023-10-07T09:43:34.343Z,19.81
2023-10-07T09:46:05.055Z,19.89
2023-10-07T09:48:35.190Z,19.96
2023-10-07T09:51:06.971Z,20.06
2023-10-07T09:53:52.929Z,20.20
2023-10-07T09:56:46.684Z,20.32
2023-10-07T09:59:49.641Z,20.34
2023-10-07T10:03:13.721Z,20.45
2023-10-07T10:06:17.597Z,20.57
2023-10-07T10:08:59.350Z,20.61
2023-10-07T10:11:39.426Z,20.63
2023-10-07T10:14:15.529Z,20.85
2023-10-07T10:16:59.240Z,20.91
2023-10-07T10:19:49.225Z,20.93
2023-10-07T10:22:23.653Z,20.99
2023-10-07T10:24:58.580Z,21.11
2023-10-07T10:27:27.817Z,21.20
2023-10-07T10:30:05.006Z,21.21
2023-10-07T10:32:38.361Z,21.22
2023-10-07T10:35:08.309Z,21.35
2023-10-07T10:37:38.701Z,21.32
2023-10-07T10:40:16.722Z,21.43
2023-10-07T10:42:48.384Z,21.59
2023-10-07T10:45:26.585Z,21.66
2023-10-07T10:48:00.306Z,21.81
2023-10-07T10:50:30.789Z,21.83
2023-10-07T10:53:00.598Z,21.82
2023-10-07T10:55:39.222Z,21.90
2023-10-07T10:58:19.693Z,21.98
2023-10-07T11:00:55.191Z,22.17
2023-10-07T11:03:23.046Z,22.20
2023-10-07T11:05:53.788Z,22.29
2023-10-07T11:08:25.468Z,22.26
2023-10-07T11:10:55.533Z,22.13
2023-10-07T11:13:25.021Z,22.22
2023-10-07T11:16:10.869Z,22.30
2023-10-07T11:18:39.537Z,22.25
2023-10-07T11:21:13.639Z,22.22
2023-10-07T11:23:51.517Z,22.39
2023-10-07T11:26:18.667Z,22.47
2023-10-07T11:28:46.060Z,22.75
2023-10-07T11:31:13.159Z,22.72
2023-10-07T11:33:53.216Z,22.68
2023-10-07T11:36:20.597Z,22.76
2023-10-07T11:38:47.561Z,22.73
2023-10-07T11:41:17.500Z,22.71
2023-10-07T11:43:45.416Z,22.77
2023-10-07T11:46:14.962Z,22.86
2023-10-07T11:48:45.545Z,22.82
2023-10-07T11:51:13.302Z,22.83
2023-10-07T11:53:43.496Z,23.01
2023-10-07T11:56:13.668Z,23.07
2023-10-07T11:58:40.959Z,23.00
2023-10-07T12:01:09.295Z,23.19
2023-10-07T12:03:36.485Z,23.26
2023-10-07T12:06:06.372Z,23.35
2023-10-07T12:08:36.381Z,23.27
2023-10-07T12:11:05.665Z,23.57
2023-10-07T12:13:33.743Z,23.68
2023-10-07T12:16:05.486Z,23.65
2023-10-07T12:18:33.460Z,23.69
2023-10-07T12:21:02.797Z,23.62
2023-10-07T12:23:34.566Z,23.63
2023-10-07T12:26:02.825Z,23.76
2023-10-07T12:28:31.612Z,23.85
2023-10-07T12:30:59.224Z,23.89
2023-10-07T12:33:36.755Z,23.91
2023-10-07T12:36:16.057Z,23.98
2023-10-07T12:38:44.144Z,24.00
2023-10-07T12:41:14.076Z,24.10
2023-10-07T12:43:41.149Z,24.10
2023-10-07T12:46:12.388Z,24.11
2023-10-07T12:48:43.886Z,24.07
2023-10-07T12:51:13.217Z,24.01
2023-10-07T12:53:41.825Z,24.05
2023-10-07T12:56:19.095Z,24.21
2023-10-07T12:58:49.875Z,24.15
2023-10-07T13:01:20.891Z,24.17
2023-10-07T13:03:49.110Z,24.01
2023-10-07T13:06:17.094Z,24.07
2023-10-07T13:08:45.456Z,24.27
2023-10-07T13:11:15.141Z,24.38
2023-10-07T13:13:42.961Z,24.29
2023-10-07T13:16:12.211Z,24.20
2023-10-07T13:18:44.272Z,24.34
2023-10-07T13:21:14.844Z,24.39
2023-10-07T13:23:42.735Z,24.39
2023-10-07T13:26:10.457Z,24.50
2023-10-07T13:28:39.468Z,24.50
2023-10-07T13:31:10.847Z,24.52
2023-10-07T13:33:38.278Z,24.51
2023-10-07T13:36:08.046Z,24.57
2023-10-07T13:38:39.730Z,24.40
2023-10-07T13:41:07.107Z,24.47
2023-10-07T13:43:37.248Z,24.59
2023-10-07T13:46:14.252Z,24.54
2023-10-07T13:48:43.840Z,24.51
2023-10-07T13:51:11.686Z,24.53
2023-10-07T13:53:52.325Z,24.62
2023-10-07T13:56:46.262Z,24.63
2023-10-07T13:59:13.604Z,24.68
2023-10-07T14:01:41.234Z,24.58
2023-10-07T14:04:08.582Z,24.55
2023-10-07T14:06:37.495Z,24.53
2023-10-07T14:09:05.173Z,24.48
2023-10-07T14:11:33.183Z,24.51
2023-10-07T14:14:01.406Z,24.48
2023-10-07T14:16:28.824Z,24.40
2023-10-07T14:18:55.752Z,24.45
2023-10-07T14:21:26.655Z,24.48
2023-10-07T14:23:53.785Z,24.50
2023-10-07T14:26:20.884Z,24.47
2023-10-07T14:28:48.012Z,24.52
2023-10-07T14:31:19.892Z,24.47
2023-10-07T14:33:47.835Z,24.48
2023-10-07T14:36:15.202Z,24.46
2023-10-07T14:38:46.604Z,24.47
2023-10-07T14:41:14.904Z,24.45
2023-10-07T14:43:42.396Z,24.45
2023-10-07T14:46:13.080Z,24.54
2023-10-07T14:48:47.967Z,24.47
2023-10-07T14:51:18.990Z,24.56
2023-10-07T14:53:46.430Z,24.53
2023-10-07T14:56:17.696Z,24.47
2023-10-07T14:58:48.771Z,24.47
2023-10-07T15:01:16.756Z,24.47
2023-10-07T15:03:45.020Z,24.41
2023-10-07T15:06:16.946Z,24.44
2023-10-07T15:08:45.792Z,24.38
2023-10-07T15:11:19.280Z,24.39
2023-10-07T15:13:47.108Z,24.38
2023-10-07T15:16:14.255Z,24.34
2023-10-07T15:18:50.384Z,24.35
2023-10-07T15:21:18.757Z,24.28
2023-10-07T15:23:46.801Z,24.29
2023-10-07T15:26:18.158Z,24.29
2023-10-07T15:28:46.941Z,24.25
2023-10-07T15:31:26.639Z,24.25
2023-10-07T15:34:08.415Z,24.16
2023-10-07T15:36:39.936Z,24.11
2023-10-07T15:39:07.592Z,24.07
2023-10-07T15:41:34.674Z,23.90
2023-10-07T15:44:02.408Z,23.90
2023-10-07T15:46:32.720Z,23.77
2023-10-07T15:49:08.758Z,23.70
2023-10-07T15:51:35.912Z,23.61
2023-10-07T15:54:05.167Z,23.54
2023-10-07T15:56:32.455Z,23.48
2023-10-07T15:58:59.606Z,23.43
2023-10-07T16:01:28.186Z,23.32
2023-10-07T16:03:58.095Z,23.36
2023-10-07T16:06:25.639Z,23.36
2023-10-07T16:08:54.531Z,23.28
2023-10-07T16:11:23.244Z,23.24
2023-10-07T16:13:50.532Z,23.16
2023-10-07T16:16:17.737Z,23.11
2023-10-07T16:18:46.692Z,23.08
2023-10-07T16:21:16.812Z,23.05
2023-10-07T16:23:45.563Z,22.97
2023-10-07T16:26:16.338Z,22.87
2023-10-07T16:28:44.884Z,22.71
2023-10-07T16:31:13.180Z,22.64
2023-10-07T16:33:40.262Z,22.56
2023-10-07T16:36:10.195Z,22.57
2023-10-07T16:38:43.083Z,22.45
2023-10-07T16:41:18.556Z,22.29
2023-10-07T16:43:46.718Z,22.35
2023-10-07T16:46:16.639Z,22.24
2023-10-07T16:48:44.602Z,22.26
2023-10-07T16:51:12.965Z,22.08
2023-10-07T16:53:43.494Z,22.05
2023-10-07T16:56:15.554Z,21.89
2023-10-07T16:58:44.000Z,21.93
2023-10-07T17:01:13.618Z,21.93
2023-10-07T17:03:41.145Z,21.88
2023-10-07T17:06:09.957Z,21.86
2023-10-07T17:08:38.186Z,21.79
2023-10-07T17:11:05.629Z,21.78
2023-10-07T17:13:33.101Z,21.70
2023-10-07T17:16:03.012Z,21.61
2023-10-07T17:18:29.988Z,21.45
2023-10-07T17:21:03.394Z,21.47
2023-10-07T17:23:30.350Z,21.34
2023-10-07T17:25:57.451Z,21.31
2023-10-07T17:28:24.721Z,21.20
2023-10-07T17:30:51.941Z,21.08
2023-10-07T17:33:22.123Z,21.00
2023-10-07T17:35:49.935Z,21.07
2023-10-07T17:38:17.128Z,21.09
2023-10-07T17:40:46.823Z,20.98
2023-10-07T17:43:13.848Z,20.91
2023-10-07T17:45:40.919Z,20.95
2023-10-07T17:48:08.379Z,20.82
2023-10-07T17:50:36.160Z,20.88
2023-10-07T17:53:04.179Z,20.85
2023-10-07T17:55:32.177Z,20.74
2023-10-07T17:58:00.031Z,20.77
2023-10-07T18:00:28.083Z,20.77
2023-10-07T18:02:57.155Z,20.79
2023-10-07T18:05:28.442Z,20.77
2023-10-07T18:07:56.851Z,20.73
2023-10-07T18:10:26.890Z,20.68
2023-10-07T18:12:56.017Z,20.71
2023-10-07T18:15:23.655Z,20.64
2023-10-07T18:17:52.832Z,20.62
2023-10-07T18:20:20.237Z,20.54
2023-10-07T18:22:51.623Z,20.46
2023-10-07T18:25:24.067Z,20.42
2023-10-07T18:27:51.642Z,20.33
2023-10-07T18:30:21.926Z,20.20
2023-10-07T18:32:49.316Z,20.18
2023-10-07T18:35:16.762Z,20.24
2023-10-07T18:37:45.115Z,20.21
2023-10-07T18:40:13.345Z,20.17
2023-10-07T18:42:42.475Z,20.28
2023-10-07T18:45:11.889Z,20.29
2023-10-07T18:47:39.664Z,20.23
2023-10-07T18:50:08.989Z,20.22
2023-10-07T18:52:36.222Z,20.18
2023-10-07T18:55:06.560Z,20.12
2023-10-07T18:57:38.828Z,20.07
2023-10-07T19:00:07.655Z,20.05
2023-10-07T19:02:34.841Z,20.05
2023-10-07T19:05:02.388Z,19.94
2023-10-07T19:07:29.543Z,19.99
2023-10-07T19:09:59.446Z,19.95
2023-10-07T19:12:27.645Z,19.93
2023-10-07T19:14:55.816Z,19.91
2023-10-07T19:17:24.399Z,19.92
2023-10-07T19:19:51.505Z,19.81
2023-10-07T19:22:18.500Z,19.84
2023-10-07T19:24:48.852Z,19.81
2023-10-07T19:27:16.499Z,19.77
2023-10-07T19:29:43.537Z,19.75
2023-10-07T19:32:11.379Z,19.69
2023-10-07T19:34:38.426Z,19.69
2023-10-07T19:37:10.429Z,19.67
2023-10-07T19:39:43.779Z,19.62
2023-10-07T19:42:12.318Z,19.56
2023-10-07T19:44:39.413Z,19.57
2023-10-07T19:47:07.995Z,19.50
2023-10-07T19:49:36.977Z,19.51
2023-10-07T19:52:07.503Z,19.48
2023-10-07T19:54:34.660Z,19.43
2023-10-07T19:57:01.614Z,19.40
2023-10-07T19:59:28.717Z,19.32
2023-10-07T20:01:56.553Z,19.36
2023-10-07T20:04:23.940Z,19.25
2023-10-07T20:06:50.922Z,19.30
2023-10-07T20:09:20.892Z,19.17
2023-10-07T20:11:48.703Z,19.24
2023-10-07T20:14:16.191Z,19.22
2023-10-07T20:16:44.066Z,19.18
2023-10-07T20:19:12.559Z,19.16
2023-10-07T20:21:40.085Z,19.21
2023-10-07T20:24:07.681Z,19.14
2023-10-07T20:26:34.955Z,19.04
2023-10-07T20:29:02.374Z,19.12
2023-10-07T20:31:29.501Z,19.10
2023-10-07T20:33:56.416Z,19.11
2023-10-07T20:36:24.210Z,19.14
2023-10-07T20:38:52.702Z,19.01
2023-10-07T20:41:19.664Z,18.90
2023-10-07T20:43:46.779Z,18.86
2023-10-07T20:46:14.131Z,18.94
2023-10-07T20:48:41.483Z,18.86
2023-10-07T20:51:17.344Z,18.81
2023-10-07T20:53:47.464Z,18.78
2023-10-07T20:56:21.059Z,18.74
2023-10-07T20:58:48.312Z,18.70
2023-10-07T21:01:21.615Z,18.70
2023-10-07T21:03:51.151Z,18.59
2023-10-07T21:06:19.171Z,18.59
2023-10-07T21:08:46.398Z,18.57
2023-10-07T21:11:14.189Z,18.57
2023-10-07T21:13:42.131Z,18.46
2023-10-07T21:16:10.049Z,18.51
2023-10-07T21:18:38.452Z,18.50
2023-10-07T21:21:13.328Z,18.44
2023-10-07T21:23:44.410Z,18.42
2023-10-07T21:26:23.431Z,18.36
2023-10-07T21:28:53.370Z,18.34
2023-10-07T21:31:21.100Z,18.31
2023-10-07T21:33:48.168Z,18.25
2023-10-07T21:36:15.231Z,18.21
2023-10-07T21:38:44.228Z,18.21
2023-10-07T21:41:11.502Z,18.19
2023-10-07T21:43:39.154Z,18.16
2023-10-07T21:46:06.421Z,18.19
2023-10-07T21:48:33.538Z,18.13
2023-10-07T21:51:08.620Z,18.08
2023-10-07T21:53:35.976Z,18.07
2023-10-07T21:56:04.602Z,18.07
2023-10-07T21:58:31.562Z,18.05
2023-10-07T22:00:58.569Z,18.03
2023-10-07T22:03:27.117Z,17.93
2023-10-07T22:05:54.804Z,17.91
2023-10-07T22:08:22.167Z,17.90
2023-10-07T22:10:49.153Z,17.87
2023-10-07T22:13:20.317Z,17.80
2023-10-07T22:15:55.575Z,17.73
2023-10-07T22:18:24.680Z,17.67
2023-10-07T22:20:53.121Z,17.64
2023-10-07T22:23:22.770Z,17.54
2023-10-07T22:25:57.609Z,17.53
2023-10-07T22:28:27.739Z,17.49
2023-10-07T22:30:55.166Z,17.42
2023-10-07T22:33:25.674Z,17.38
2023-10-07T22:35:54.504Z,17.36
2023-10-07T22:38:22.852Z,17.34
2023-10-07T22:40:59.181Z,17.32
2023-10-07T22:43:35.666Z,17.28
2023-10-07T22:46:08.182Z,17.25
2023-10-07T22:48:36.937Z,17.29
2023-10-07T22:51:25.592Z,17.28
2023-10-07T22:54:02.770Z,17.22
2023-10-07T22:56:32.823Z,17.08
2023-10-07T22:59:03.306Z,17.12
2023-10-07T23:01:39.403Z,17.09
2023-10-07T23:04:18.034Z,16.99
2023-10-07T23:07:01.300Z,17.00
2023-10-07T23:09:37.368Z,17.03
2023-10-07T23:12:16.400Z,16.98
2023-10-07T23:14:48.354Z,16.90
2023-10-07T23:17:27.023Z,16.93
2023-10-07T23:20:07.858Z,16.89
2023-10-07T23:22:39.786Z,16.90
2023-10-07T23:25:20.236Z,16.90
2023-10-07T23:27:50.875Z,16.89
2023-10-07T23:30:28.155Z,16.81
2023-10-07T23:33:01.501Z,16.88
2023-10-07T23:35:33.210Z,16.78
2023-10-07T23:38:09.568Z,16.78
2023-10-07T23:40:37.077Z,16.76
2023-10-07T23:43:11.251Z,16.72
2023-10-07T23:45:44.605Z,16.68
2023-10-07T23:48:13.706Z,16.66
2023-10-07T23:50:48.476Z,16.69
2023-10-07T23:53:26.138Z,16.58
2023-10-07T23:56:12.323Z,16.65
2023-10-07T23:59:04.308Z,16.65
